sensor_id;sensor_type;location;lat;lon;timestamp;temperature;humidity
33564;DHT22;19894;48.452;11.494;2022-09-13T00:01:58;21.30;54.10
33564;DHT22;19894;48.452;11.494;2022-09-13T00:04:23;21.30;54.10
33564;DHT22;19894;48.452;11.494;2022-09-13T00:06:49;21.30;53.90
33564;DHT22;19894;48.452;11.494;2022-09-13T00:09:14;21.30;53.80
33564;DHT22;19894;48.452;11.494;2022-09-13T00:11:40;21.30;53.80
33564;DHT22;19894;48.452;11.494;2022-09-13T00:14:05;21.30;53.70
33564;DHT22;19894;48.452;11.494;2022-09-13T00:16:31;21.30;53.60
33564;DHT22;19894;48.452;11.494;2022-09-13T00:18:58;21.30;53.50
33564;DHT22;19894;48.452;11.494;2022-09-13T00:21:24;21.30;53.30
33564;DHT22;19894;48.452;11.494;2022-09-13T00:23:52;21.30;53.40
33564;DHT22;19894;48.452;11.494;2022-09-13T00:26:26;21.30;53.40
33564;DHT22;19894;48.452;11.494;2022-09-13T00:28:55;21.30;53.60
33564;DHT22;19894;48.452;11.494;2022-09-13T00:31:22;21.30;53.60
33564;DHT22;19894;48.452;11.494;2022-09-13T00:33:49;21.30;53.80
33564;DHT22;19894;48.452;11.494;2022-09-13T00:36:15;21.30;53.70
33564;DHT22;19894;48.452;11.494;2022-09-13T00:38:41;21.30;53.70
33564;DHT22;19894;48.452;11.494;2022-09-13T00:41:12;21.30;53.60
33564;DHT22;19894;48.452;11.494;2022-09-13T00:43:59;21.30;53.50
33564;DHT22;19894;48.452;11.494;2022-09-13T00:48:56;21.30;53.50
33564;DHT22;19894;48.452;11.494;2022-09-13T00:51:24;21.30;53.60
33564;DHT22;19894;48.452;11.494;2022-09-13T00:53:52;21.30;53.60
33564;DHT22;19894;48.452;11.494;2022-09-13T00:56:31;21.20;53.70
33564;DHT22;19894;48.452;11.494;2022-09-13T00:59:01;21.30;53.50
33564;DHT22;19894;48.452;11.494;2022-09-13T01:01:36;21.30;53.50
33564;DHT22;19894;48.452;11.494;2022-09-13T01:04:03;21.30;53.50
33564;DHT22;19894;48.452;11.494;2022-09-13T01:06:31;21.30;53.40
33564;DHT22;19894;48.452;11.494;2022-09-13T01:08:59;21.30;53.10
33564;DHT22;19894;48.452;11.494;2022-09-13T01:11:47;21.30;52.80
33564;DHT22;19894;48.452;11.494;2022-09-13T01:14:17;21.30;52.70
33564;DHT22;19894;48.452;11.494;2022-09-13T01:16:43;21.30;52.60
33564;DHT22;19894;48.452;11.494;2022-09-13T01:19:08;21.30;52.50
33564;DHT22;19894;48.452;11.494;2022-09-13T01:27:29;21.30;52.30
33564;DHT22;19894;48.452;11.494;2022-09-13T01:30:13;21.30;52.50
33564;DHT22;19894;48.452;11.494;2022-09-13T01:32:54;21.30;52.60
33564;DHT22;19894;48.452;11.494;2022-09-13T01:41:01;21.30;53.00
33564;DHT22;19894;48.452;11.494;2022-09-13T01:49:14;21.30;52.90
33564;DHT22;19894;48.452;11.494;2022-09-13T01:54:20;21.30;52.80
33564;DHT22;19894;48.452;11.494;2022-09-13T01:57:05;21.30;52.80
33564;DHT22;19894;48.452;11.494;2022-09-13T01:59:52;21.30;52.80
33564;DHT22;19894;48.452;11.494;2022-09-13T02:02:19;21.30;52.80
33564;DHT22;19894;48.452;11.494;2022-09-13T02:04:51;21.30;52.70
33564;DHT22;19894;48.452;11.494;2022-09-13T02:07:20;21.30;53.00
33564;DHT22;19894;48.452;11.494;2022-09-13T02:09:53;21.30;52.80
33564;DHT22;19894;48.452;11.494;2022-09-13T02:12:23;21.30;52.50
33564;DHT22;19894;48.452;11.494;2022-09-13T02:15:02;21.30;52.40
33564;DHT22;19894;48.452;11.494;2022-09-13T02:17:34;21.30;52.20
33564;DHT22;19894;48.452;11.494;2022-09-13T02:20:08;21.30;52.10
33564;DHT22;19894;48.452;11.494;2022-09-13T02:22:40;21.30;52.00
33564;DHT22;19894;48.452;11.494;2022-09-13T02:25:16;21.30;52.00
33564;DHT22;19894;48.452;11.494;2022-09-13T02:27:47;21.30;52.10
33564;DHT22;19894;48.452;11.494;2022-09-13T02:30:14;21.30;52.10
33564;DHT22;19894;48.452;11.494;2022-09-13T02:33:32;21.30;52.00
33564;DHT22;19894;48.452;11.494;2022-09-13T02:36:09;21.30;51.90
33564;DHT22;19894;48.452;11.494;2022-09-13T02:39:00;21.30;52.70
33564;DHT22;19894;48.452;11.494;2022-09-13T02:50:06;21.30;52.60
33564;DHT22;19894;48.452;11.494;2022-09-13T02:55:11;21.30;52.40
33564;DHT22;19894;48.452;11.494;2022-09-13T02:57:51;21.20;52.40
33564;DHT22;19894;48.452;11.494;2022-09-13T03:00:18;21.30;52.50
33564;DHT22;19894;48.452;11.494;2022-09-13T03:02:44;21.30;52.60
33564;DHT22;19894;48.452;11.494;2022-09-13T03:05:11;21.30;52.50
33564;DHT22;19894;48.452;11.494;2022-09-13T03:07:36;21.30;52.60
33564;DHT22;19894;48.452;11.494;2022-09-13T03:10:08;21.30;52.40
33564;DHT22;19894;48.452;11.494;2022-09-13T03:12:51;21.30;52.50
33564;DHT22;19894;48.452;11.494;2022-09-13T03:18:35;21.30;52.40
33564;DHT22;19894;48.452;11.494;2022-09-13T03:23:52;21.30;52.00
33564;DHT22;19894;48.452;11.494;2022-09-13T03:31:40;21.30;51.60
33564;DHT22;19894;48.452;11.494;2022-09-13T03:34:15;21.30;51.50
33564;DHT22;19894;48.452;11.494;2022-09-13T03:37:01;21.30;51.40
33564;DHT22;19894;48.452;11.494;2022-09-13T03:42:14;21.30;51.30
33564;DHT22;19894;48.452;11.494;2022-09-13T03:44:41;21.30;51.50
33564;DHT22;19894;48.452;11.494;2022-09-13T03:47:10;21.30;51.40
33564;DHT22;19894;48.452;11.494;2022-09-13T03:49:37;21.30;51.60
33564;DHT22;19894;48.452;11.494;2022-09-13T03:52:03;21.30;51.90
33564;DHT22;19894;48.452;11.494;2022-09-13T03:54:31;21.30;51.90
33564;DHT22;19894;48.452;11.494;2022-09-13T03:57:16;21.30;51.80
33564;DHT22;19894;48.452;11.494;2022-09-13T03:59:46;21.30;51.90
33564;DHT22;19894;48.452;11.494;2022-09-13T04:02:12;21.30;51.80
33564;DHT22;19894;48.452;11.494;2022-09-13T04:04:39;21.30;51.70
33564;DHT22;19894;48.452;11.494;2022-09-13T04:07:05;21.20;51.80
33564;DHT22;19894;48.452;11.494;2022-09-13T04:09:30;21.30;51.80
33564;DHT22;19894;48.452;11.494;2022-09-13T04:11:56;21.30;51.80
33564;DHT22;19894;48.452;11.494;2022-09-13T04:14:22;21.30;51.90
33564;DHT22;19894;48.452;11.494;2022-09-13T04:16:51;21.30;51.80
33564;DHT22;19894;48.452;11.494;2022-09-13T04:19:17;21.30;51.80
33564;DHT22;19894;48.452;11.494;2022-09-13T04:21:43;21.30;51.90
33564;DHT22;19894;48.452;11.494;2022-09-13T04:24:08;21.30;52.10
33564;DHT22;19894;48.452;11.494;2022-09-13T04:26:34;21.30;52.20
33564;DHT22;19894;48.452;11.494;2022-09-13T04:29:00;21.30;51.90
33564;DHT22;19894;48.452;11.494;2022-09-13T04:31:25;21.30;51.70
33564;DHT22;19894;48.452;11.494;2022-09-13T04:33:51;21.30;51.50
33564;DHT22;19894;48.452;11.494;2022-09-13T04:36:16;21.30;51.40
33564;DHT22;19894;48.452;11.494;2022-09-13T04:38:42;21.30;51.40
33564;DHT22;19894;48.452;11.494;2022-09-13T04:41:07;21.30;51.40
33564;DHT22;19894;48.452;11.494;2022-09-13T04:43:35;21.30;51.40
33564;DHT22;19894;48.452;11.494;2022-09-13T04:46:00;21.30;51.40
33564;DHT22;19894;48.452;11.494;2022-09-13T04:48:26;21.30;51.40
33564;DHT22;19894;48.452;11.494;2022-09-13T04:50:51;21.30;51.40
33564;DHT22;19894;48.452;11.494;2022-09-13T04:53:17;21.30;51.60
33564;DHT22;19894;48.452;11.494;2022-09-13T04:55:43;21.30;51.80
33564;DHT22;19894;48.452;11.494;2022-09-13T04:58:09;21.30;51.80
33564;DHT22;19894;48.452;11.494;2022-09-13T05:00:35;21.30;51.90
33564;DHT22;19894;48.452;11.494;2022-09-13T05:03:00;21.30;52.00
33564;DHT22;19894;48.452;11.494;2022-09-13T05:05:26;21.30;52.10
33564;DHT22;19894;48.452;11.494;2022-09-13T05:07:53;21.30;52.20
33564;DHT22;19894;48.452;11.494;2022-09-13T05:10:18;21.30;52.00
33564;DHT22;19894;48.452;11.494;2022-09-13T05:12:44;21.30;51.90
33564;DHT22;19894;48.452;11.494;2022-09-13T05:15:10;21.30;52.00
33564;DHT22;19894;48.452;11.494;2022-09-13T05:17:37;21.30;51.90
33564;DHT22;19894;48.452;11.494;2022-09-13T05:20:03;21.30;51.90
33564;DHT22;19894;48.452;11.494;2022-09-13T05:22:30;21.30;51.80
33564;DHT22;19894;48.452;11.494;2022-09-13T05:24:55;21.20;51.70
33564;DHT22;19894;48.452;11.494;2022-09-13T05:27:21;21.30;51.70
33564;DHT22;19894;48.452;11.494;2022-09-13T05:29:47;21.30;51.80
33564;DHT22;19894;48.452;11.494;2022-09-13T05:32:13;21.30;51.50
33564;DHT22;19894;48.452;11.494;2022-09-13T05:34:38;21.30;51.60
33564;DHT22;19894;48.452;11.494;2022-09-13T05:37:04;21.20;52.00
33564;DHT22;19894;48.452;11.494;2022-09-13T05:39:29;21.20;51.30
33564;DHT22;19894;48.452;11.494;2022-09-13T05:41:55;21.30;51.40
33564;DHT22;19894;48.452;11.494;2022-09-13T05:44:21;21.30;51.40
33564;DHT22;19894;48.452;11.494;2022-09-13T05:46:47;21.30;51.40
33564;DHT22;19894;48.452;11.494;2022-09-13T05:49:13;21.30;51.30
33564;DHT22;19894;48.452;11.494;2022-09-13T05:51:38;21.30;51.30
33564;DHT22;19894;48.452;11.494;2022-09-13T05:54:04;21.30;51.40
33564;DHT22;19894;48.452;11.494;2022-09-13T05:56:30;21.30;51.40
33564;DHT22;19894;48.452;11.494;2022-09-13T05:58:56;21.30;52.00
33564;DHT22;19894;48.452;11.494;2022-09-13T06:01:24;21.30;51.60
33564;DHT22;19894;48.452;11.494;2022-09-13T06:03:52;21.30;51.70
33564;DHT22;19894;48.452;11.494;2022-09-13T06:06:18;21.30;51.80
33564;DHT22;19894;48.452;11.494;2022-09-13T06:08:44;21.30;51.90
33564;DHT22;19894;48.452;11.494;2022-09-13T06:11:12;21.30;51.90
33564;DHT22;19894;48.452;11.494;2022-09-13T06:13:39;21.30;52.00
33564;DHT22;19894;48.452;11.494;2022-09-13T06:16:07;21.30;52.00
33564;DHT22;19894;48.452;11.494;2022-09-13T06:18:34;21.30;52.00
33564;DHT22;19894;48.452;11.494;2022-09-13T06:21:02;21.30;52.10
33564;DHT22;19894;48.452;11.494;2022-09-13T06:23:28;21.30;52.10
33564;DHT22;19894;48.452;11.494;2022-09-13T06:26:02;21.30;52.10
33564;DHT22;19894;48.452;11.494;2022-09-13T06:28:28;21.30;52.20
33564;DHT22;19894;48.452;11.494;2022-09-13T06:31:21;21.30;52.30
33564;DHT22;19894;48.452;11.494;2022-09-13T06:33:47;21.30;52.30
33564;DHT22;19894;48.452;11.494;2022-09-13T06:36:15;21.20;52.40
33564;DHT22;19894;48.452;11.494;2022-09-13T06:38:47;21.30;52.50
33564;DHT22;19894;48.452;11.494;2022-09-13T06:41:18;21.30;52.50
33564;DHT22;19894;48.452;11.494;2022-09-13T06:43:45;21.30;52.60
33564;DHT22;19894;48.452;11.494;2022-09-13T06:46:14;21.30;52.70
33564;DHT22;19894;48.452;11.494;2022-09-13T06:48:42;21.30;52.70
33564;DHT22;19894;48.452;11.494;2022-09-13T06:51:10;21.30;52.80
33564;DHT22;19894;48.452;11.494;2022-09-13T06:53:37;21.30;52.90
33564;DHT22;19894;48.452;11.494;2022-09-13T06:56:08;21.30;52.90
33564;DHT22;19894;48.452;11.494;2022-09-13T06:58:35;21.30;53.00
33564;DHT22;19894;48.452;11.494;2022-09-13T07:03:40;21.30;53.00
33564;DHT22;19894;48.452;11.494;2022-09-13T07:06:08;21.30;53.10
33564;DHT22;19894;48.452;11.494;2022-09-13T07:08:34;21.30;53.20
33564;DHT22;19894;48.452;11.494;2022-09-13T07:11:00;21.30;53.30
33564;DHT22;19894;48.452;11.494;2022-09-13T07:13:26;21.30;53.40
33564;DHT22;19894;48.452;11.494;2022-09-13T07:15:51;21.30;53.50
33564;DHT22;19894;48.452;11.494;2022-09-13T07:18:17;21.30;53.60
33564;DHT22;19894;48.452;11.494;2022-09-13T07:20:42;21.30;53.70
33564;DHT22;19894;48.452;11.494;2022-09-13T07:23:08;21.30;53.70
33564;DHT22;19894;48.452;11.494;2022-09-13T07:25:33;21.30;53.80
33564;DHT22;19894;48.452;11.494;2022-09-13T07:27:59;21.30;53.90
33564;DHT22;19894;48.452;11.494;2022-09-13T07:30:25;21.30;54.00
33564;DHT22;19894;48.452;11.494;2022-09-13T07:32:51;21.30;54.10
33564;DHT22;19894;48.452;11.494;2022-09-13T07:35:16;21.30;54.40
33564;DHT22;19894;48.452;11.494;2022-09-13T07:37:42;21.30;54.40
33564;DHT22;19894;48.452;11.494;2022-09-13T07:40:10;21.30;54.50
33564;DHT22;19894;48.452;11.494;2022-09-13T07:42:35;21.20;54.60
33564;DHT22;19894;48.452;11.494;2022-09-13T07:45:01;21.30;54.80
33564;DHT22;19894;48.452;11.494;2022-09-13T07:47:26;21.30;54.90
33564;DHT22;19894;48.452;11.494;2022-09-13T07:49:52;21.30;55.20
33564;DHT22;19894;48.452;11.494;2022-09-13T07:52:17;21.30;55.10
33564;DHT22;19894;48.452;11.494;2022-09-13T07:54:43;21.40;55.20
33564;DHT22;19894;48.452;11.494;2022-09-13T07:57:09;21.30;55.20
33564;DHT22;19894;48.452;11.494;2022-09-13T07:59:34;21.30;55.30
33564;DHT22;19894;48.452;11.494;2022-09-13T08:02:00;21.30;55.10
33564;DHT22;19894;48.452;11.494;2022-09-13T08:04:25;21.30;55.10
33564;DHT22;19894;48.452;11.494;2022-09-13T08:06:51;21.30;55.00
33564;DHT22;19894;48.452;11.494;2022-09-13T08:09:17;21.30;55.10
33564;DHT22;19894;48.452;11.494;2022-09-13T08:11:47;21.30;55.10
33564;DHT22;19894;48.452;11.494;2022-09-13T08:14:15;21.30;55.10
33564;DHT22;19894;48.452;11.494;2022-09-13T08:16:41;21.30;55.20
33564;DHT22;19894;48.452;11.494;2022-09-13T08:19:10;21.30;55.20
33564;DHT22;19894;48.452;11.494;2022-09-13T08:21:38;21.30;55.20
33564;DHT22;19894;48.452;11.494;2022-09-13T08:24:05;21.30;55.30
33564;DHT22;19894;48.452;11.494;2022-09-13T08:26:34;21.30;55.30
33564;DHT22;19894;48.452;11.494;2022-09-13T08:29:02;21.30;55.30
33564;DHT22;19894;48.452;11.494;2022-09-13T08:31:29;21.30;55.40
33564;DHT22;19894;48.452;11.494;2022-09-13T08:33:55;21.30;55.50
33564;DHT22;19894;48.452;11.494;2022-09-13T08:36:21;21.30;55.50
33564;DHT22;19894;48.452;11.494;2022-09-13T08:38:50;21.30;55.80
33564;DHT22;19894;48.452;11.494;2022-09-13T08:44:17;21.30;55.90
33564;DHT22;19894;48.452;11.494;2022-09-13T08:46:48;21.30;56.10
33564;DHT22;19894;48.452;11.494;2022-09-13T08:49:31;21.30;56.10
33564;DHT22;19894;48.452;11.494;2022-09-13T08:52:47;21.30;56.20
33564;DHT22;19894;48.452;11.494;2022-09-13T08:54:46;21.30;56.20
33564;DHT22;19894;48.452;11.494;2022-09-13T09:03:18;21.40;56.20
33564;DHT22;19894;48.452;11.494;2022-09-13T09:05:48;21.40;56.20
33564;DHT22;19894;48.452;11.494;2022-09-13T09:10:50;21.30;56.20
33564;DHT22;19894;48.452;11.494;2022-09-13T09:13:36;21.30;56.20
33564;DHT22;19894;48.452;11.494;2022-09-13T09:18:54;21.30;56.30
33564;DHT22;19894;48.452;11.494;2022-09-13T09:21:22;21.30;56.40
33564;DHT22;19894;48.452;11.494;2022-09-13T09:23:51;21.30;56.40
33564;DHT22;19894;48.452;11.494;2022-09-13T09:26:25;21.30;56.40
33564;DHT22;19894;48.452;11.494;2022-09-13T09:29:17;21.30;56.50
33564;DHT22;19894;48.452;11.494;2022-09-13T09:32:23;21.30;56.40
33564;DHT22;19894;48.452;11.494;2022-09-13T09:35:09;21.30;56.60
33564;DHT22;19894;48.452;11.494;2022-09-13T09:37:38;21.30;56.60
33564;DHT22;19894;48.452;11.494;2022-09-13T09:40:08;21.30;56.80
33564;DHT22;19894;48.452;11.494;2022-09-13T09:42:47;21.30;57.00
33564;DHT22;19894;48.452;11.494;2022-09-13T09:47:49;21.30;57.20
33564;DHT22;19894;48.452;11.494;2022-09-13T09:50:36;21.30;57.40
33564;DHT22;19894;48.452;11.494;2022-09-13T09:53:15;21.30;57.50
33564;DHT22;19894;48.452;11.494;2022-09-13T09:55:53;21.30;57.60
33564;DHT22;19894;48.452;11.494;2022-09-13T09:58:41;21.30;57.60
33564;DHT22;19894;48.452;11.494;2022-09-13T10:03:50;21.40;57.70
33564;DHT22;19894;48.452;11.494;2022-09-13T10:06:21;21.40;57.80
33564;DHT22;19894;48.452;11.494;2022-09-13T10:09:04;21.40;57.90
33564;DHT22;19894;48.452;11.494;2022-09-13T10:11:56;21.40;57.80
33564;DHT22;19894;48.452;11.494;2022-09-13T10:20:00;21.40;58.10
33564;DHT22;19894;48.452;11.494;2022-09-13T10:22:32;21.40;58.10
33564;DHT22;19894;48.452;11.494;2022-09-13T10:25:24;21.40;58.10
33564;DHT22;19894;48.452;11.494;2022-09-13T10:27:53;21.40;58.20
33564;DHT22;19894;48.452;11.494;2022-09-13T10:30:44;21.40;58.30
33564;DHT22;19894;48.452;11.494;2022-09-13T10:33:33;21.40;58.30
33564;DHT22;19894;48.452;11.494;2022-09-13T10:36:06;21.40;58.30
33564;DHT22;19894;48.452;11.494;2022-09-13T10:38:38;21.40;58.30
33564;DHT22;19894;48.452;11.494;2022-09-13T10:41:07;21.40;58.20
33564;DHT22;19894;48.452;11.494;2022-09-13T10:43:34;21.40;58.30
33564;DHT22;19894;48.452;11.494;2022-09-13T10:46:02;21.40;58.20
33564;DHT22;19894;48.452;11.494;2022-09-13T10:48:29;21.40;58.40
33564;DHT22;19894;48.452;11.494;2022-09-13T10:51:02;21.40;58.40
33564;DHT22;19894;48.452;11.494;2022-09-13T10:53:33;21.40;58.60
33564;DHT22;19894;48.452;11.494;2022-09-13T10:55:58;21.40;58.70
33564;DHT22;19894;48.452;11.494;2022-09-13T10:58:24;21.40;58.80
33564;DHT22;19894;48.452;11.494;2022-09-13T11:09:06;21.40;58.50
33564;DHT22;19894;48.452;11.494;2022-09-13T11:11:47;21.40;58.60
33564;DHT22;19894;48.452;11.494;2022-09-13T11:16:57;21.40;58.50
33564;DHT22;19894;48.452;11.494;2022-09-13T11:19:43;21.40;58.50
33564;DHT22;19894;48.452;11.494;2022-09-13T11:33:45;21.40;58.70
33564;DHT22;19894;48.452;11.494;2022-09-13T11:41:59;21.40;58.60
33564;DHT22;19894;48.452;11.494;2022-09-13T11:44:52;21.40;58.70
33564;DHT22;19894;48.452;11.494;2022-09-13T11:50:16;21.40;58.80
33564;DHT22;19894;48.452;11.494;2022-09-13T11:55:43;21.40;59.30
33564;DHT22;19894;48.452;11.494;2022-09-13T11:58:17;21.40;59.30
33564;DHT22;19894;48.452;11.494;2022-09-13T12:00:49;21.40;59.60
33564;DHT22;19894;48.452;11.494;2022-09-13T12:03:37;21.40;59.80
33564;DHT22;19894;48.452;11.494;2022-09-13T12:06:36;21.40;59.90
33564;DHT22;19894;48.452;11.494;2022-09-13T12:09:13;21.40;60.00
33564;DHT22;19894;48.452;11.494;2022-09-13T12:11:43;21.40;60.10
33564;DHT22;19894;48.452;11.494;2022-09-13T12:14:15;21.40;60.00
33564;DHT22;19894;48.452;11.494;2022-09-13T12:16:46;21.40;60.00
33564;DHT22;19894;48.452;11.494;2022-09-13T12:19:18;21.50;60.00
33564;DHT22;19894;48.452;11.494;2022-09-13T12:21:48;21.40;59.90
33564;DHT22;19894;48.452;11.494;2022-09-13T12:24:33;21.50;60.00
33564;DHT22;19894;48.452;11.494;2022-09-13T12:27:08;21.50;59.90
33564;DHT22;19894;48.452;11.494;2022-09-13T12:29:50;21.50;59.80
33564;DHT22;19894;48.452;11.494;2022-09-13T12:32:18;21.50;59.70
33564;DHT22;19894;48.452;11.494;2022-09-13T12:35:06;21.40;59.70
33564;DHT22;19894;48.452;11.494;2022-09-13T12:46:34;21.40;59.70
33564;DHT22;19894;48.452;11.494;2022-09-13T12:57:45;21.40;59.70
33564;DHT22;19894;48.452;11.494;2022-09-13T13:00:23;21.40;59.70
33564;DHT22;19894;48.452;11.494;2022-09-13T13:03:02;21.40;59.60
33564;DHT22;19894;48.452;11.494;2022-09-13T13:05:44;21.40;59.60
33564;DHT22;19894;48.452;11.494;2022-09-13T13:11:11;21.40;60.00
33564;DHT22;19894;48.452;11.494;2022-09-13T13:13:45;21.40;60.00
33564;DHT22;19894;48.452;11.494;2022-09-13T13:16:30;21.40;60.10
33564;DHT22;19894;48.452;11.494;2022-09-13T13:18:58;21.40;60.00
33564;DHT22;19894;48.452;11.494;2022-09-13T13:21:42;21.50;60.10
33564;DHT22;19894;48.452;11.494;2022-09-13T13:26:53;21.50;60.00
33564;DHT22;19894;48.452;11.494;2022-09-13T13:29:22;21.50;60.00
33564;DHT22;19894;48.452;11.494;2022-09-13T13:34:33;21.50;60.20
33564;DHT22;19894;48.452;11.494;2022-09-13T13:37:26;21.50;60.30
33564;DHT22;19894;48.452;11.494;2022-09-13T13:40:31;21.40;60.50
33564;DHT22;19894;48.452;11.494;2022-09-13T13:43:35;21.50;60.40
33564;DHT22;19894;48.452;11.494;2022-09-13T13:46:27;21.50;60.40
33564;DHT22;19894;48.452;11.494;2022-09-13T13:48:53;21.50;60.40
33564;DHT22;19894;48.452;11.494;2022-09-13T13:53:53;21.40;60.30
33564;DHT22;19894;48.452;11.494;2022-09-13T13:56:28;21.50;60.30
33564;DHT22;19894;48.452;11.494;2022-09-13T13:59:43;21.40;60.20
33564;DHT22;19894;48.452;11.494;2022-09-13T14:01:47;21.50;60.20
33564;DHT22;19894;48.452;11.494;2022-09-13T14:07:19;21.40;60.20
33564;DHT22;19894;48.452;11.494;2022-09-13T14:18:25;21.50;60.20
33564;DHT22;19894;48.452;11.494;2022-09-13T14:21:04;21.50;60.10
33564;DHT22;19894;48.452;11.494;2022-09-13T14:23:30;21.50;60.00
33564;DHT22;19894;48.452;11.494;2022-09-13T14:25:57;21.50;60.00
33564;DHT22;19894;48.452;11.494;2022-09-13T14:28:23;21.50;60.10
33564;DHT22;19894;48.452;11.494;2022-09-13T14:30:53;21.50;60.20
33564;DHT22;19894;48.452;11.494;2022-09-13T14:33:26;21.50;60.40
33564;DHT22;19894;48.452;11.494;2022-09-13T14:36:02;21.50;60.30
33564;DHT22;19894;48.452;11.494;2022-09-13T14:38:30;21.50;60.40
33564;DHT22;19894;48.452;11.494;2022-09-13T14:41:15;21.50;60.50
33564;DHT22;19894;48.452;11.494;2022-09-13T14:43:42;21.50;60.60
33564;DHT22;19894;48.452;11.494;2022-09-13T14:46:24;21.50;60.60
33564;DHT22;19894;48.452;11.494;2022-09-13T14:48:57;21.50;60.60
33564;DHT22;19894;48.452;11.494;2022-09-13T14:51:26;21.50;60.70
33564;DHT22;19894;48.452;11.494;2022-09-13T14:54:17;21.40;60.90
33564;DHT22;19894;48.452;11.494;2022-09-13T14:56:50;21.50;61.20
33564;DHT22;19894;48.452;11.494;2022-09-13T14:59:33;21.50;61.20
33564;DHT22;19894;48.452;11.494;2022-09-13T15:02:28;21.50;61.30
33564;DHT22;19894;48.452;11.494;2022-09-13T15:04:58;21.50;61.40
33564;DHT22;19894;48.452;11.494;2022-09-13T15:07:31;21.50;61.50
33564;DHT22;19894;48.452;11.494;2022-09-13T15:10:28;21.50;61.80
33564;DHT22;19894;48.452;11.494;2022-09-13T15:20:57;21.50;62.70
33564;DHT22;19894;48.452;11.494;2022-09-13T15:23:33;21.50;62.90
33564;DHT22;19894;48.452;11.494;2022-09-13T15:26:07;21.50;63.00
33564;DHT22;19894;48.452;11.494;2022-09-13T15:28:52;21.50;63.00
33564;DHT22;19894;48.452;11.494;2022-09-13T15:31:34;21.50;63.10
33564;DHT22;19894;48.452;11.494;2022-09-13T15:36:46;21.50;63.00
33564;DHT22;19894;48.452;11.494;2022-09-13T15:39:17;21.50;62.90
33564;DHT22;19894;48.452;11.494;2022-09-13T15:41:54;21.50;62.90
33564;DHT22;19894;48.452;11.494;2022-09-13T15:44:21;21.50;62.70
33564;DHT22;19894;48.452;11.494;2022-09-13T15:46:50;21.50;62.50
33564;DHT22;19894;48.452;11.494;2022-09-13T15:49:21;21.50;62.60
33564;DHT22;19894;48.452;11.494;2022-09-13T15:51:59;21.50;63.20
33564;DHT22;19894;48.452;11.494;2022-09-13T15:54:35;21.50;62.80
33564;DHT22;19894;48.452;11.494;2022-09-13T15:57:01;21.50;62.90
33564;DHT22;19894;48.452;11.494;2022-09-13T15:59:27;21.50;62.80
33564;DHT22;19894;48.452;11.494;2022-09-13T16:01:53;21.50;62.70
33564;DHT22;19894;48.452;11.494;2022-09-13T16:04:20;21.50;62.90
33564;DHT22;19894;48.452;11.494;2022-09-13T16:06:45;21.50;62.90
33564;DHT22;19894;48.452;11.494;2022-09-13T16:09:22;21.50;62.90
33564;DHT22;19894;48.452;11.494;2022-09-13T16:11:49;21.50;63.00
33564;DHT22;19894;48.452;11.494;2022-09-13T16:14:15;21.50;63.00
33564;DHT22;19894;48.452;11.494;2022-09-13T16:16:41;21.50;63.10
33564;DHT22;19894;48.452;11.494;2022-09-13T16:19:20;21.50;63.10
33564;DHT22;19894;48.452;11.494;2022-09-13T16:21:47;21.50;63.10
33564;DHT22;19894;48.452;11.494;2022-09-13T16:24:13;21.50;63.30
33564;DHT22;19894;48.452;11.494;2022-09-13T16:26:39;21.50;63.40
33564;DHT22;19894;48.452;11.494;2022-09-13T16:29:05;21.50;63.50
33564;DHT22;19894;48.452;11.494;2022-09-13T16:31:31;21.50;63.80
33564;DHT22;19894;48.452;11.494;2022-09-13T16:33:57;21.50;63.80
33564;DHT22;19894;48.452;11.494;2022-09-13T16:36:22;21.50;63.80
33564;DHT22;19894;48.452;11.494;2022-09-13T16:38:48;21.50;63.90
33564;DHT22;19894;48.452;11.494;2022-09-13T16:41:13;21.50;63.90
33564;DHT22;19894;48.452;11.494;2022-09-13T16:43:39;21.50;63.90
33564;DHT22;19894;48.452;11.494;2022-09-13T16:46:09;21.50;64.10
33564;DHT22;19894;48.452;11.494;2022-09-13T16:48:35;21.50;64.30
33564;DHT22;19894;48.452;11.494;2022-09-13T16:51:02;21.60;64.40
33564;DHT22;19894;48.452;11.494;2022-09-13T16:53:31;21.50;64.40
33564;DHT22;19894;48.452;11.494;2022-09-13T16:56:11;21.60;64.40
33564;DHT22;19894;48.452;11.494;2022-09-13T16:58:39;21.50;64.40
33564;DHT22;19894;48.452;11.494;2022-09-13T17:01:07;21.50;64.40
33564;DHT22;19894;48.452;11.494;2022-09-13T17:03:33;21.50;64.30
33564;DHT22;19894;48.452;11.494;2022-09-13T17:06:05;21.50;64.20
33564;DHT22;19894;48.452;11.494;2022-09-13T17:08:32;21.50;64.30
33564;DHT22;19894;48.452;11.494;2022-09-13T17:10:59;21.50;64.30
33564;DHT22;19894;48.452;11.494;2022-09-13T17:13:24;21.50;64.30
33564;DHT22;19894;48.452;11.494;2022-09-13T17:15:50;21.50;64.70
33564;DHT22;19894;48.452;11.494;2022-09-13T17:18:16;21.50;64.10
33564;DHT22;19894;48.452;11.494;2022-09-13T17:20:48;21.50;64.20
33564;DHT22;19894;48.452;11.494;2022-09-13T17:23:15;21.50;64.30
33564;DHT22;19894;48.452;11.494;2022-09-13T17:25:50;21.50;64.20
33564;DHT22;19894;48.452;11.494;2022-09-13T17:28:17;21.50;64.50
33564;DHT22;19894;48.452;11.494;2022-09-13T17:30:43;21.50;64.60
33564;DHT22;19894;48.452;11.494;2022-09-13T17:33:10;21.50;64.70
33564;DHT22;19894;48.452;11.494;2022-09-13T17:35:36;21.50;64.80
33564;DHT22;19894;48.452;11.494;2022-09-13T17:38:02;21.50;65.00
33564;DHT22;19894;48.452;11.494;2022-09-13T17:40:29;21.50;65.10
33564;DHT22;19894;48.452;11.494;2022-09-13T17:42:55;21.50;65.10
33564;DHT22;19894;48.452;11.494;2022-09-13T17:45:21;21.50;65.10
33564;DHT22;19894;48.452;11.494;2022-09-13T17:47:47;21.50;65.10
33564;DHT22;19894;48.452;11.494;2022-09-13T17:50:13;21.50;65.20
33564;DHT22;19894;48.452;11.494;2022-09-13T17:52:39;21.60;65.30
33564;DHT22;19894;48.452;11.494;2022-09-13T17:55:05;21.60;65.30
33564;DHT22;19894;48.452;11.494;2022-09-13T17:57:31;21.50;65.20
33564;DHT22;19894;48.452;11.494;2022-09-13T17:59:57;21.60;65.20
33564;DHT22;19894;48.452;11.494;2022-09-13T18:02:22;21.60;65.10
33564;DHT22;19894;48.452;11.494;2022-09-13T18:04:48;21.60;64.90
33564;DHT22;19894;48.452;11.494;2022-09-13T18:07:15;21.50;64.80
33564;DHT22;19894;48.452;11.494;2022-09-13T18:09:41;21.60;64.80
33564;DHT22;19894;48.452;11.494;2022-09-13T18:12:07;21.60;64.90
33564;DHT22;19894;48.452;11.494;2022-09-13T18:14:33;21.50;65.00
33564;DHT22;19894;48.452;11.494;2022-09-13T18:16:58;21.60;64.90
33564;DHT22;19894;48.452;11.494;2022-09-13T18:19:24;21.50;64.90